createdAt,value
2022-11-02T00:01:55.846Z,10.70
2022-11-02T00:04:24.236Z,10.60
2022-11-02T00:06:52.484Z,10.50
2022-11-02T00:09:20.741Z,10.70
2022-11-02T00:11:48.902Z,10.70
2022-11-02T00:14:19.733Z,10.60
2022-11-02T00:16:48.167Z,10.60
2022-11-02T00:19:16.521Z,10.60
2022-11-02T00:21:44.981Z,10.70
2022-11-02T00:24:14.000Z,10.80
2022-11-02T00:26:44.468Z,10.90
2022-11-02T00:29:12.738Z,11.10
2022-11-02T00:31:42.333Z,11.10
2022-11-02T00:34:10.764Z,11.20
2022-11-02T00:36:39.149Z,11.30
2022-11-02T00:39:07.495Z,11.30
2022-11-02T00:41:35.896Z,11.50
2022-11-02T00:44:04.669Z,11.60
2022-11-02T00:46:39.715Z,11.60
2022-11-02T00:49:09.956Z,11.70
2022-11-02T00:51:38.245Z,11.80
2022-11-02T00:54:06.581Z,11.80
2022-11-02T00:56:34.798Z,11.70
2022-11-02T00:59:03.022Z,11.70
2022-11-02T01:01:31.412Z,11.80
2022-11-02T01:03:59.891Z,11.70
2022-11-02T01:06:29.560Z,11.60
2022-11-02T01:08:57.765Z,11.60
2022-11-02T01:11:27.148Z,11.70
2022-11-02T01:13:55.480Z,11.80
2022-11-02T01:16:23.892Z,11.90
2022-11-02T01:18:54.282Z,11.90
2022-11-02T01:21:23.093Z,11.90
2022-11-02T01:23:53.368Z,11.80
2022-11-02T01:26:23.031Z,11.80
2022-11-02T01:28:51.229Z,11.80
2022-11-02T01:31:19.414Z,11.90
2022-11-02T01:33:47.918Z,11.80
2022-11-02T01:38:56.563Z,11.50
2022-11-02T01:41:25.924Z,11.40
2022-11-02T01:43:59.000Z,11.40
2022-11-02T01:46:38.612Z,11.40
2022-11-02T01:49:13.069Z,11.40
2022-11-02T01:51:47.741Z,11.30
2022-11-02T01:54:22.672Z,11.40
2022-11-02T01:56:56.606Z,11.40
2022-11-02T01:59:32.098Z,11.40
2022-11-02T02:02:00.639Z,11.50
2022-11-02T02:04:30.217Z,11.40
2022-11-02T02:07:00.381Z,11.50
2022-11-02T02:09:31.147Z,11.50
2022-11-02T02:11:59.390Z,11.60
2022-11-02T02:14:27.691Z,11.60
2022-11-02T02:17:20.638Z,11.60
2022-11-02T02:19:58.995Z,11.70
2022-11-02T02:23:22.501Z,11.70
2022-11-02T02:26:27.796Z,11.70
2022-11-02T02:29:04.763Z,11.70
2022-11-02T02:31:41.444Z,11.60
2022-11-02T02:34:19.777Z,11.60
2022-11-02T02:36:54.114Z,11.60
2022-11-02T02:39:35.966Z,11.50
2022-11-02T02:42:15.666Z,11.40
2022-11-02T02:44:55.436Z,11.30
2022-11-02T02:47:29.101Z,11.40
2022-11-02T02:50:07.997Z,11.50
2022-11-02T02:52:38.711Z,11.50
2022-11-02T02:55:14.952Z,11.60
2022-11-02T02:57:43.300Z,11.60
2022-11-02T03:00:17.839Z,11.60
2022-11-02T03:03:01.198Z,11.60
2022-11-02T03:05:33.870Z,11.70
2022-11-02T03:08:09.574Z,11.70
2022-11-02T03:10:47.841Z,11.70
2022-11-02T03:13:48.698Z,11.80
2022-11-02T03:16:38.554Z,11.80
2022-11-02T03:19:21.256Z,11.80
2022-11-02T03:22:00.648Z,11.80
2022-11-02T03:24:36.714Z,11.90
2022-11-02T03:27:15.752Z,11.90
2022-11-02T03:29:55.149Z,11.90
2022-11-02T03:32:33.609Z,11.80
2022-11-02T03:35:07.946Z,11.70
2022-11-02T03:37:42.846Z,11.70
2022-11-02T03:40:19.361Z,11.50
2022-11-02T03:42:50.857Z,11.40
2022-11-02T03:45:23.362Z,11.40
2022-11-02T03:48:00.672Z,11.40
2022-11-02T03:50:28.998Z,11.30
2022-11-02T03:53:06.397Z,11.30
2022-11-02T03:55:41.125Z,11.30
2022-11-02T03:58:12.884Z,11.10
2022-11-02T04:00:51.320Z,11.00
2022-11-02T04:03:24.185Z,11.00
2022-11-02T04:05:52.772Z,11.10
2022-11-02T04:08:31.596Z,11.20
2022-11-02T04:11:17.206Z,11.20
2022-11-02T04:14:02.799Z,11.20
2022-11-02T04:16:31.424Z,11.30
2022-11-02T04:19:18.741Z,11.40
2022-11-02T04:22:00.761Z,11.60
2022-11-02T04:24:46.483Z,11.70
2022-11-02T04:27:19.701Z,11.70
2022-11-02T04:29:49.187Z,11.40
2022-11-02T04:32:37.853Z,11.40
2022-11-02T04:35:08.786Z,11.50
2022-11-02T04:38:12.700Z,11.50
2022-11-02T04:40:40.955Z,11.50
2022-11-02T04:43:09.254Z,11.40
2022-11-02T04:45:37.605Z,11.40
2022-11-02T04:48:09.194Z,11.30
2022-11-02T04:50:38.996Z,11.20
2022-11-02T04:53:08.292Z,11.10
2022-11-02T04:55:36.543Z,10.90
2022-11-02T04:58:04.869Z,10.90
2022-11-02T05:00:33.497Z,10.90
2022-11-02T05:03:01.670Z,10.90
2022-11-02T05:05:29.908Z,10.80
2022-11-02T05:07:59.734Z,10.80
2022-11-02T05:10:27.977Z,10.70
2022-11-02T05:12:58.799Z,10.80
2022-11-02T05:15:27.613Z,10.70
2022-11-02T05:17:56.059Z,10.60
2022-11-02T05:20:24.317Z,10.60
2022-11-02T05:22:52.471Z,10.60
2022-11-02T05:25:22.048Z,10.60
2022-11-02T05:27:50.215Z,10.40
2022-11-02T05:30:18.608Z,10.30
2022-11-02T05:32:46.746Z,10.20
2022-11-02T05:35:15.222Z,10.10
2022-11-02T05:37:43.429Z,10.10
2022-11-02T05:40:14.045Z,10.00
2022-11-02T05:42:43.766Z,10.00
2022-11-02T05:45:12.165Z,10.10
2022-11-02T05:47:40.620Z,10.20
2022-11-02T05:50:11.151Z,10.20
2022-11-02T05:52:39.491Z,10.30
2022-11-02T05:55:09.217Z,10.50
2022-11-02T05:57:37.370Z,10.50
2022-11-02T06:00:09.546Z,10.70
2022-11-02T06:02:38.038Z,10.70
2022-11-02T06:05:07.670Z,10.70
2022-11-02T06:07:36.062Z,10.70
2022-11-02T06:10:04.745Z,10.70
2022-11-02T06:12:33.123Z,10.60
2022-11-02T06:15:01.289Z,10.50
2022-11-02T06:17:38.104Z,10.50
2022-11-02T06:20:08.360Z,10.30
2022-11-02T06:22:41.180Z,10.30
2022-11-02T06:25:11.044Z,10.20
2022-11-02T06:27:44.931Z,10.10
2022-11-02T06:30:14.475Z,10.00
2022-11-02T06:32:48.577Z,9.90
2022-11-02T06:35:17.778Z,9.80
2022-11-02T06:37:46.750Z,9.80
2022-11-02T06:40:16.332Z,9.70
2022-11-02T06:45:32.891Z,9.70
2022-11-02T06:48:02.907Z,9.80
2022-11-02T06:50:31.131Z,9.90
2022-11-02T06:52:59.324Z,9.90
2022-11-02T06:55:27.468Z,9.90
2022-11-02T06:57:55.875Z,10.00
2022-11-02T07:00:24.374Z,10.20
2022-11-02T07:03:03.827Z,10.20
2022-11-02T07:05:32.849Z,10.10
2022-11-02T07:08:01.228Z,10.20
2022-11-02T07:10:30.267Z,10.10
2022-11-02T07:13:02.417Z,10.10
2022-11-02T07:15:31.130Z,10.00
2022-11-02T07:17:59.305Z,10.00
2022-11-02T07:20:30.286Z,9.90
2022-11-02T07:23:01.544Z,9.90
2022-11-02T07:25:32.790Z,9.90
2022-11-02T07:28:02.682Z,9.90
2022-11-02T07:30:32.870Z,9.90
2022-11-02T07:33:01.315Z,9.90
2022-11-02T07:35:31.143Z,10.00
2022-11-02T07:38:01.358Z,10.10
2022-11-02T07:40:32.144Z,10.40
2022-11-02T07:43:01.501Z,10.60
2022-11-02T07:45:30.192Z,10.90
2022-11-02T07:47:58.307Z,11.00
2022-11-02T07:50:28.500Z,11.20
2022-11-02T07:53:00.653Z,11.30
2022-11-02T07:55:31.844Z,11.30
2022-11-02T07:58:02.385Z,11.50
2022-11-02T08:00:35.612Z,11.60
2022-11-02T08:03:05.700Z,11.80
2022-11-02T08:05:37.021Z,12.00
2022-11-02T08:08:09.538Z,12.40
2022-11-02T08:10:40.488Z,12.70
2022-11-02T08:13:09.819Z,12.80
2022-11-02T08:15:38.586Z,12.90
2022-11-02T08:18:10.573Z,13.20
2022-11-02T08:20:38.682Z,13.70
2022-11-02T08:23:08.566Z,14.30
2022-11-02T08:25:37.110Z,14.70
2022-11-02T08:28:07.536Z,15.30
2022-11-02T08:30:36.253Z,16.00
2022-11-02T08:33:06.852Z,16.40
2022-11-02T08:35:37.564Z,16.60
2022-11-02T08:38:08.296Z,16.90
2022-11-02T08:40:37.716Z,16.70
2022-11-02T08:43:09.204Z,16.50
2022-11-02T08:46:13.876Z,16.30
2022-11-02T08:48:28.615Z,15.80
2022-11-02T08:50:56.961Z,15.50
2022-11-02T08:53:26.515Z,15.70
2022-11-02T08:55:54.754Z,16.10
2022-11-02T08:58:22.888Z,16.50
2022-11-02T09:00:54.031Z,16.50
2022-11-02T09:03:26.961Z,16.60
2022-11-02T09:06:00.155Z,16.40
2022-11-02T09:08:33.381Z,15.90
2022-11-02T09:11:04.363Z,16.70
2022-11-02T09:13:32.694Z,17.90
2022-11-02T09:16:02.781Z,18.10
2022-11-02T09:18:31.762Z,17.90
2022-11-02T09:21:03.714Z,16.40
2022-11-02T09:23:34.120Z,15.50
2022-11-02T09:26:02.605Z,14.90
2022-11-02T09:28:31.107Z,14.90
2022-11-02T09:30:59.561Z,14.90
2022-11-02T09:33:29.795Z,14.60
2022-11-02T09:36:03.367Z,14.50
2022-11-02T09:38:33.547Z,14.60
2022-11-02T09:41:15.895Z,15.60
2022-11-02T09:44:00.165Z,16.10
2022-11-02T09:46:35.064Z,16.10
2022-11-02T09:49:12.467Z,16.60
2022-11-02T09:51:46.191Z,17.50
2022-11-02T09:54:21.323Z,17.70
2022-11-02T09:56:52.705Z,17.20
2022-11-02T09:59:23.973Z,16.20
2022-11-02T10:02:03.965Z,16.30
2022-11-02T10:04:52.410Z,16.40
2022-11-02T10:07:39.937Z,16.20
2022-11-02T10:10:19.054Z,15.50
2022-11-02T10:13:04.563Z,16.30
2022-11-02T10:15:41.165Z,17.20
2022-11-02T10:18:18.499Z,18.40
2022-11-02T10:20:52.415Z,19.20
2022-11-02T10:23:30.505Z,20.10
2022-11-02T10:26:02.113Z,20.20
2022-11-02T10:28:34.914Z,20.50
2022-11-02T10:31:04.265Z,19.80
2022-11-02T10:33:32.977Z,19.20
2022-11-02T10:36:23.108Z,19.10
2022-11-02T10:39:10.547Z,19.40
2022-11-02T10:42:05.226Z,19.40
2022-11-02T10:44:58.536Z,19.30
2022-11-02T10:47:34.853Z,18.70
2022-11-02T10:50:32.761Z,18.20
2022-11-02T10:53:27.449Z,18.10
2022-11-02T10:56:02.760Z,18.20
2022-11-02T10:59:06.138Z,18.20
2022-11-02T11:01:34.529Z,18.20
2022-11-02T11:04:05.804Z,18.40
2022-11-02T11:06:40.174Z,18.50
2022-11-02T11:09:17.956Z,18.50
2022-11-02T11:11:56.996Z,18.40
2022-11-02T11:20:34.580Z,18.00
2022-11-02T11:23:19.476Z,18.30
2022-11-02T11:25:58.203Z,18.50
2022-11-02T11:28:31.528Z,18.30
2022-11-02T11:31:10.162Z,18.60
2022-11-02T11:33:49.806Z,19.00
2022-11-02T11:36:31.315Z,18.90
2022-11-02T11:39:05.183Z,18.30
2022-11-02T11:41:38.882Z,18.10
2022-11-02T11:44:19.059Z,18.00
2022-11-02T11:46:56.901Z,17.70
2022-11-02T11:52:29.976Z,17.60
2022-11-02T11:55:01.939Z,17.50
2022-11-02T11:57:33.732Z,17.40
2022-11-02T12:00:04.992Z,17.30
2022-11-02T12:02:43.993Z,17.20
2022-11-02T12:05:17.280Z,17.30
2022-11-02T12:08:16.927Z,17.00
2022-11-02T12:11:19.014Z,16.70
2022-11-02T12:14:06.245Z,16.50
2022-11-02T12:17:01.102Z,17.00
2022-11-02T12:19:49.783Z,17.40
2022-11-02T12:22:35.772Z,17.70
2022-11-02T12:25:37.542Z,17.80
2022-11-02T12:28:24.042Z,17.10
2022-11-02T12:31:11.281Z,16.30
2022-11-02T12:34:10.497Z,16.50
2022-11-02T12:40:15.666Z,17.00
2022-11-02T12:42:56.531Z,17.00
2022-11-02T12:45:48.159Z,16.90
2022-11-02T12:48:31.150Z,16.90
2022-11-02T12:51:05.957Z,16.90
2022-11-02T12:53:47.613Z,17.00
2022-11-02T12:56:22.904Z,17.10
2022-11-02T12:58:51.255Z,17.00
2022-11-02T13:01:28.615Z,17.10
2022-11-02T13:04:10.322Z,17.10
2022-11-02T13:06:45.280Z,17.00
2022-11-02T13:09:24.570Z,16.90
2022-11-02T13:12:03.531Z,16.70
2022-11-02T13:14:41.749Z,16.90
2022-11-02T13:17:19.544Z,17.00
2022-11-02T13:19:55.167Z,17.00
2022-11-02T13:22:34.241Z,16.70
2022-11-02T13:25:18.460Z,16.70
2022-11-02T13:27:54.398Z,16.90
2022-11-02T13:30:23.072Z,17.00
2022-11-02T13:33:00.787Z,16.90
2022-11-02T13:35:36.192Z,16.70
2022-11-02T13:38:20.883Z,16.50
2022-11-02T13:41:06.171Z,16.50
2022-11-02T13:44:16.622Z,16.30
2022-11-02T13:47:39.211Z,15.70
2022-11-02T13:50:16.909Z,15.40
2022-11-02T13:52:53.091Z,15.30
2022-11-02T13:55:26.837Z,15.20
2022-11-02T13:58:03.097Z,15.40
2022-11-02T14:00:45.215Z,15.80
2022-11-02T14:03:22.068Z,16.40
2022-11-02T14:05:55.190Z,16.70
2022-11-02T14:08:35.986Z,16.80
2022-11-02T14:11:24.612Z,16.70
2022-11-02T14:14:24.913Z,16.50
2022-11-02T14:17:18.193Z,16.30
2022-11-02T14:20:07.090Z,16.50
2022-11-02T14:22:36.683Z,16.30
2022-11-02T14:25:26.731Z,16.00
2022-11-02T14:27:57.263Z,15.80
2022-11-02T14:30:46.787Z,15.70
2022-11-02T14:33:44.824Z,15.60
2022-11-02T14:36:35.869Z,15.50
2022-11-02T14:39:18.005Z,15.50
2022-11-02T14:42:35.517Z,15.50
2022-11-02T14:45:29.013Z,15.40
2022-11-02T14:48:18.815Z,15.30
2022-11-02T14:51:13.684Z,15.30
2022-11-02T14:53:43.549Z,15.40
2022-11-02T14:56:12.541Z,15.40
2022-11-02T14:58:52.825Z,15.30
2022-11-02T15:01:21.820Z,15.40
2022-11-02T15:03:53.747Z,15.40
2022-11-02T15:06:27.513Z,15.40
2022-11-02T15:09:00.531Z,15.30
2022-11-02T15:11:51.285Z,15.10
2022-11-02T15:14:57.100Z,15.00
2022-11-02T15:18:17.511Z,14.70
2022-11-02T15:20:47.685Z,14.50
2022-11-02T15:23:31.120Z,14.40
2022-11-02T15:26:02.462Z,14.30
2022-11-02T15:28:36.009Z,14.20
2022-11-02T15:31:16.218Z,14.00
2022-11-02T15:33:48.581Z,13.80
2022-11-02T15:36:31.161Z,13.50
2022-11-02T15:39:03.585Z,13.30
2022-11-02T15:41:44.798Z,13.10
2022-11-02T15:45:26.692Z,12.80
2022-11-02T15:48:18.550Z,12.60
2022-11-02T15:51:00.940Z,12.30
2022-11-02T15:53:52.185Z,12.10
2022-11-02T15:56:47.590Z,11.80
2022-11-02T16:00:10.087Z,11.50
2022-11-02T16:02:45.598Z,11.10
2022-11-02T16:05:24.570Z,10.70
2022-11-02T16:08:10.412Z,10.50
2022-11-02T16:14:25.124Z,10.10
2022-11-02T16:17:01.933Z,9.70
2022-11-02T16:19:30.480Z,9.30
2022-11-02T16:22:05.829Z,9.10
2022-11-02T16:24:35.880Z,8.90
2022-11-02T16:30:13.839Z,8.30
2022-11-02T16:32:43.815Z,8.20
2022-11-02T16:35:17.025Z,8.10
2022-11-02T16:37:53.547Z,8.00
2022-11-02T16:40:28.522Z,8.00
2022-11-02T16:42:59.874Z,8.10
2022-11-02T16:45:43.367Z,8.20
2022-11-02T16:48:28.656Z,8.20
2022-11-02T16:51:22.519Z,8.10
2022-11-02T16:53:54.872Z,8.00
2022-11-02T16:56:33.211Z,8.00
2022-11-02T16:59:09.483Z,8.00
2022-11-02T17:01:43.922Z,7.80
2022-11-02T17:04:27.440Z,7.80
2022-11-02T17:07:15.423Z,7.50
2022-11-02T17:09:55.515Z,7.20
2022-11-02T17:12:40.563Z,7.00
2022-11-02T17:15:22.290Z,6.90
2022-11-02T17:17:55.314Z,6.90
2022-11-02T17:20:28.455Z,7.00
2022-11-02T17:23:02.215Z,7.00
2022-11-02T17:25:38.679Z,6.90
2022-11-02T17:28:45.150Z,6.70
2022-11-02T17:31:38.073Z,6.60
2022-11-02T17:34:16.394Z,6.70
2022-11-02T17:36:50.436Z,6.80
2022-11-02T17:39:22.191Z,6.70
2022-11-02T17:42:15.381Z,6.70
2022-11-02T17:44:51.154Z,6.80
2022-11-02T17:47:22.554Z,6.70
2022-11-02T17:49:51.884Z,6.50
2022-11-02T17:52:21.048Z,6.50
2022-11-02T17:54:49.362Z,6.40
2022-11-02T17:57:19.341Z,6.40
2022-11-02T17:59:48.416Z,6.30
2022-11-02T18:02:17.826Z,6.30
2022-11-02T18:04:47.679Z,6.30
2022-11-02T18:07:16.946Z,6.20
2022-11-02T18:09:56.356Z,6.30
2022-11-02T18:12:25.385Z,6.30
2022-11-02T18:14:54.159Z,6.30
2022-11-02T18:17:23.169Z,6.40
2022-11-02T18:20:08.043Z,6.40
2022-11-02T18:22:37.900Z,6.50
2022-11-02T18:25:11.049Z,6.50
2022-11-02T18:27:44.076Z,6.50
2022-11-02T18:30:16.842Z,6.30
2022-11-02T18:32:49.326Z,6.30
2022-11-02T18:35:24.498Z,6.40
2022-11-02T18:38:10.918Z,6.30
2022-11-02T18:40:45.457Z,6.20
2022-11-02T18:43:19.483Z,6.10
2022-11-02T18:46:04.494Z,6.20
2022-11-02T18:48:34.670Z,6.40
2022-11-02T18:51:17.249Z,6.60
2022-11-02T18:53:47.202Z,6.70
2022-11-02T18:56:16.212Z,6.70
2022-11-02T19:01:47.449Z,6.80
2022-11-02T19:04:30.787Z,6.80
2022-11-02T19:10:19.443Z,6.70
2022-11-02T19:12:49.004Z,6.60
2022-11-02T19:15:17.610Z,6.60
2022-11-02T19:18:00.937Z,6.50
2022-11-02T19:20:32.926Z,6.30
2022-11-02T19:23:39.656Z,6.40
2022-11-02T19:26:10.107Z,6.30
2022-11-02T19:28:39.936Z,6.30
2022-11-02T19:31:10.806Z,6.30
2022-11-02T19:33:42.186Z,6.30
2022-11-02T19:36:14.819Z,6.40
2022-11-02T19:38:45.299Z,6.40
2022-11-02T19:41:17.237Z,6.30
2022-11-02T19:43:51.616Z,6.30
2022-11-02T19:46:35.240Z,6.30
2022-11-02T19:49:06.455Z,6.40
2022-11-02T19:51:56.310Z,6.50
2022-11-02T19:54:37.882Z,6.60
2022-11-02T19:57:14.187Z,6.70
2022-11-02T19:59:43.639Z,6.70
2022-11-02T20:02:15.606Z,6.60
2022-11-02T20:04:46.710Z,6.50
2022-11-02T20:07:15.295Z,6.40
2022-11-02T20:09:45.191Z,6.50
2022-11-02T20:12:17.485Z,6.50
2022-11-02T20:14:47.965Z,6.50
2022-11-02T20:17:31.167Z,6.60
2022-11-02T20:20:03.297Z,6.50
2022-11-02T20:22:35.396Z,6.30
2022-11-02T20:25:07.863Z,6.20
2022-11-02T20:27:37.188Z,6.10
2022-11-02T20:30:07.513Z,6.10
2022-11-02T20:32:35.898Z,6.00
2022-11-02T20:35:11.017Z,5.90
2022-11-02T20:37:41.679Z,5.90
2022-11-02T20:40:15.976Z,6.10
2022-11-02T20:42:45.803Z,6.10
2022-11-02T20:45:17.406Z,6.20
2022-11-02T20:47:45.996Z,6.30
2022-11-02T20:50:16.636Z,6.40
2022-11-02T20:52:48.002Z,6.50
2022-11-02T20:55:19.078Z,6.50
2022-11-02T20:57:50.110Z,6.60
2022-11-02T21:00:24.807Z,6.60
2022-11-02T21:02:53.363Z,6.50
2022-11-02T21:05:23.664Z,6.40
2022-11-02T21:07:53.476Z,6.30
2022-11-02T21:10:23.376Z,6.30
2022-11-02T21:13:09.172Z,6.20
2022-11-02T21:15:38.142Z,6.30
2022-11-02T21:18:07.209Z,6.20
2022-11-02T21:20:35.684Z,6.20
2022-11-02T21:23:06.113Z,6.30
2022-11-02T21:25:36.724Z,6.20
2022-11-02T21:28:10.441Z,6.10
2022-11-02T21:30:38.862Z,6.00
2022-11-02T21:33:07.377Z,5.90
2022-11-02T21:35:36.359Z,5.90
2022-11-02T21:38:07.011Z,5.90
2022-11-02T21:40:38.497Z,5.90
2022-11-02T21:43:07.390Z,6.00
2022-11-02T21:45:38.070Z,6.00
2022-11-02T21:48:06.806Z,6.00
2022-11-02T21:50:35.329Z,5.90
2022-11-02T21:53:03.778Z,5.80
2022-11-02T21:55:32.293Z,5.80
2022-11-02T21:58:03.733Z,6.00
2022-11-02T22:00:45.963Z,5.90
2022-11-02T22:03:15.349Z,5.80
2022-11-02T22:05:56.551Z,5.80
2022-11-02T22:08:40.426Z,5.80
2022-11-02T22:11:11.418Z,5.70
2022-11-02T22:13:51.122Z,5.70
2022-11-02T22:16:25.389Z,5.80
2022-11-02T22:18:56.458Z,5.70
2022-11-02T22:21:29.226Z,5.90
2022-11-02T22:23:58.444Z,6.10
2022-11-02T22:26:30.735Z,6.20
2022-11-02T22:29:01.206Z,6.20
2022-11-02T22:31:32.055Z,6.30
2022-11-02T22:34:08.047Z,6.30
2022-11-02T22:36:39.068Z,6.20
2022-11-02T22:39:08.585Z,6.20
2022-11-02T22:41:39.390Z,6.00
2022-11-02T22:44:11.099Z,5.80
2022-11-02T22:46:41.601Z,5.80
2022-11-02T22:49:11.937Z,5.70
2022-11-02T22:51:42.164Z,5.70
2022-11-02T22:54:14.861Z,5.70
2022-11-02T22:56:43.713Z,5.60
2022-11-02T22:59:14.237Z,5.50
2022-11-02T23:01:43.377Z,5.60
2022-11-02T23:04:12.961Z,5.50
2022-11-02T23:06:41.343Z,5.60
2022-11-02T23:09:12.275Z,5.80
2022-11-02T23:11:40.624Z,5.70
2022-11-02T23:14:12.981Z,5.70
2022-11-02T23:16:43.261Z,5.70
2022-11-02T23:19:25.019Z,5.60
2022-11-02T23:22:09.940Z,5.50
2022-11-02T23:24:55.882Z,5.50
2022-11-02T23:27:24.525Z,5.80
2022-11-02T23:30:11.699Z,5.80
2022-11-02T23:32:40.128Z,6.10
2022-11-02T23:35:27.048Z,6.10
2022-11-02T23:38:04.419Z,6.00
2022-11-02T23:40:33.553Z,5.90
2022-11-02T23:43:01.830Z,5.90
2022-11-02T23:45:31.252Z,5.80
2022-11-02T23:48:00.823Z,5.60
2022-11-02T23:50:50.851Z,5.40
2022-11-02T23:53:39.782Z,5.20
2022-11-02T23:56:32.888Z,5.10
2022-11-02T23:59:07.243Z,5.00
